createdAt,value
2023-03-27T00:02:24.068Z,92574.97
2023-03-27T00:05:28.704Z,92582.56
2023-03-27T00:08:35.190Z,92577.19
2023-03-27T00:11:39.278Z,92569.78
2023-03-27T00:14:42.682Z,92569.53
2023-03-27T00:17:52.588Z,92571.56
2023-03-27T00:21:03.793Z,92566.56
2023-03-27T00:24:12.148Z,92567.09
2023-03-27T00:27:15.424Z,92570.00
2023-03-27T00:30:19.841Z,92562.78
2023-03-27T00:33:24.638Z,92564.38
2023-03-27T00:36:28.269Z,92566.13
2023-03-27T00:39:32.009Z,92557.47
2023-03-27T00:42:36.572Z,92570.06
2023-03-27T00:45:39.893Z,92558.84
2023-03-27T00:48:47.926Z,92568.09
2023-03-27T00:51:53.805Z,92560.69
2023-03-27T00:55:00.123Z,92559.44
2023-03-27T00:58:08.700Z,92564.56
2023-03-27T01:01:15.986Z,92554.72
2023-03-27T01:04:22.436Z,92563.00
2023-03-27T01:07:26.852Z,92560.19
2023-03-27T01:11:05.300Z,92558.84
2023-03-27T01:14:32.952Z,92557.28
2023-03-27T01:17:50.616Z,92559.19
2023-03-27T01:21:16.147Z,92557.28
2023-03-27T01:24:38.789Z,92558.88
2023-03-27T01:27:52.233Z,92561.72
2023-03-27T01:31:21.841Z,92563.22
2023-03-27T01:34:31.308Z,92561.94
2023-03-27T01:37:42.016Z,92556.72
2023-03-27T01:40:53.870Z,92545.03
2023-03-27T01:44:45.297Z,92556.19
2023-03-27T01:48:21.328Z,92558.19
2023-03-27T01:51:39.112Z,92553.00
2023-03-27T01:54:47.626Z,92560.84
2023-03-27T01:58:06.220Z,92547.84
2023-03-27T02:01:12.035Z,92560.19
2023-03-27T02:04:34.353Z,92542.59
2023-03-27T02:07:44.848Z,92554.31
2023-03-27T02:10:53.342Z,92552.44
2023-03-27T02:14:04.961Z,92553.84
2023-03-27T02:17:14.752Z,92546.13
2023-03-27T02:20:18.597Z,92539.69
2023-03-27T02:23:23.635Z,92544.97
2023-03-27T02:26:27.262Z,92536.53
2023-03-27T02:29:46.385Z,92538.50
2023-03-27T02:32:54.663Z,92541.78
2023-03-27T02:36:32.953Z,92537.84
2023-03-27T02:39:45.953Z,92532.66
2023-03-27T02:43:07.912Z,92530.72
2023-03-27T02:46:21.933Z,92532.06
2023-03-27T02:49:52.004Z,92537.28
2023-03-27T02:53:01.560Z,92526.19
2023-03-27T02:56:07.472Z,92530.09
2023-03-27T02:59:41.058Z,92522.31
2023-03-27T03:02:46.420Z,92524.91
2023-03-27T03:05:51.506Z,92520.97
2023-03-27T03:08:54.317Z,92511.16
2023-03-27T03:11:58.676Z,92513.13
2023-03-27T03:15:01.944Z,92511.81
2023-03-27T03:18:08.275Z,92519.00
2023-03-27T03:21:11.531Z,92514.34
2023-03-27T03:24:14.769Z,92509.75
2023-03-27T03:27:21.574Z,92507.09
2023-03-27T03:30:50.983Z,92503.84
2023-03-27T03:33:54.694Z,92509.06
2023-03-27T03:36:58.171Z,92498.00
2023-03-27T03:40:12.346Z,92497.31
2023-03-27T03:43:20.541Z,92495.97
2023-03-27T03:46:23.875Z,92490.72
2023-03-27T03:49:27.724Z,92490.06
2023-03-27T03:52:31.429Z,92478.91
2023-03-27T03:55:34.593Z,92476.25
2023-03-27T03:58:37.934Z,92482.06
2023-03-27T04:01:42.100Z,92479.41
2023-03-27T04:04:46.690Z,92472.19
2023-03-27T04:07:51.857Z,92466.91
2023-03-27T04:11:16.404Z,92461.63
2023-03-27T04:14:33.439Z,92459.63
2023-03-27T04:17:41.445Z,92456.25
2023-03-27T04:20:50.353Z,92451.53
2023-03-27T04:24:03.008Z,92443.13
2023-03-27T04:27:22.076Z,92443.13
2023-03-27T04:30:37.669Z,92430.63
2023-03-27T04:34:00.629Z,92441.69
2023-03-27T04:37:24.161Z,92433.78
2023-03-27T04:40:50.377Z,92425.94
2023-03-27T04:43:54.473Z,92426.56
2023-03-27T04:47:02.577Z,92418.09
2023-03-27T04:50:08.421Z,92415.47
2023-03-27T04:53:12.233Z,92416.72
2023-03-27T04:56:20.837Z,92411.97
2023-03-27T04:59:24.958Z,92408.56
2023-03-27T05:02:49.302Z,92410.44
2023-03-27T05:06:10.729Z,92406.47
2023-03-27T05:09:14.444Z,92403.09
2023-03-27T05:12:17.830Z,92393.78
2023-03-27T05:15:30.874Z,92394.41
2023-03-27T05:18:35.014Z,92385.84
2023-03-27T05:21:39.291Z,92395.03
2023-03-27T05:24:45.370Z,92383.22
2023-03-27T05:27:50.447Z,92371.44
2023-03-27T05:30:53.786Z,92373.91
2023-03-27T05:33:59.259Z,92365.91
2023-03-27T05:37:06.650Z,92364.38
2023-03-27T05:40:25.606Z,92363.66
2023-03-27T05:43:28.947Z,92358.41
2023-03-27T05:46:32.151Z,92356.44
2023-03-27T05:49:42.282Z,92350.47
2023-03-27T05:52:48.713Z,92351.13
2023-03-27T05:56:02.937Z,92348.34
2023-03-27T05:59:15.378Z,92344.13
2023-03-27T06:02:22.648Z,92337.13
2023-03-27T06:05:35.166Z,92334.84
2023-03-27T06:08:38.671Z,92333.53
2023-03-27T06:11:45.547Z,92322.22
2023-03-27T06:14:48.913Z,92323.19
2023-03-27T06:18:12.878Z,92327.50
2023-03-27T06:21:16.866Z,92326.84
2023-03-27T06:24:20.035Z,92316.34
2023-03-27T06:27:23.919Z,92316.06
2023-03-27T06:30:28.292Z,92309.81
2023-03-27T06:33:49.810Z,92302.41
2023-03-27T06:37:07.409Z,92307.38
2023-03-27T06:40:25.576Z,92299.44
2023-03-27T06:43:30.524Z,92298.94
2023-03-27T06:46:45.911Z,92300.75
2023-03-27T06:50:05.706Z,92300.53
2023-03-27T06:53:19.636Z,92306.13
2023-03-27T06:56:29.545Z,92303.22
2023-03-27T06:59:51.358Z,92300.53
2023-03-27T07:03:01.909Z,92292.53
2023-03-27T07:06:31.712Z,92288.44
2023-03-27T07:09:42.756Z,92276.50
2023-03-27T07:12:49.681Z,92280.38
2023-03-27T07:15:55.480Z,92279.66
2023-03-27T07:19:01.888Z,92274.97
2023-03-27T07:22:08.596Z,92277.53
2023-03-27T07:25:13.394Z,92276.22
2023-03-27T07:28:22.801Z,92276.84
2023-03-27T07:31:39.497Z,92279.41
2023-03-27T07:34:54.264Z,92287.78
2023-03-27T07:37:58.503Z,92284.38
2023-03-27T07:41:12.303Z,92281.06
2023-03-27T07:44:31.460Z,92272.44
2023-03-27T07:47:44.206Z,92271.06
2023-03-27T07:50:51.858Z,92284.28
2023-03-27T07:54:05.145Z,92279.13
2023-03-27T07:57:12.391Z,92272.81
2023-03-27T08:00:41.084Z,92275.50
2023-03-27T08:03:49.524Z,92280.81
2023-03-27T08:06:58.206Z,92278.97
2023-03-27T08:10:01.800Z,92269.94
2023-03-27T08:13:13.295Z,92271.28
2023-03-27T08:16:18.869Z,92269.28
2023-03-27T08:19:23.479Z,92266.03
2023-03-27T08:22:30.409Z,92266.03
2023-03-27T08:26:02.879Z,92265.25
2023-03-27T08:29:12.894Z,92265.78
2023-03-27T08:32:19.003Z,92270.47
2023-03-27T08:35:24.634Z,92270.59
2023-03-27T08:38:33.725Z,92272.56
2023-03-27T08:41:56.100Z,92277.59
2023-03-27T08:45:43.738Z,92263.06
2023-03-27T08:49:10.025Z,92262.56
2023-03-27T08:52:18.139Z,92264.66
2023-03-27T08:55:41.981Z,92254.19
2023-03-27T08:59:01.394Z,92254.88
2023-03-27T09:02:16.568Z,92256.97
2023-03-27T09:05:31.232Z,92251.88
2023-03-27T09:09:04.006Z,92249.81
2023-03-27T09:12:19.294Z,92245.16
2023-03-27T09:15:26.865Z,92252.75
2023-03-27T09:18:37.001Z,92250.50
2023-03-27T09:21:55.437Z,92244.34
2023-03-27T09:25:45.980Z,92249.28
2023-03-27T09:29:20.390Z,92243.00
2023-03-27T09:32:33.979Z,92249.78
2023-03-27T09:35:39.343Z,92243.91
2023-03-27T09:38:47.047Z,92241.94
2023-03-27T09:42:06.794Z,92245.88
2023-03-27T09:45:14.193Z,92238.66
2023-03-27T09:48:47.781Z,92239.97
2023-03-27T09:51:54.836Z,92238.72
2023-03-27T09:55:31.444Z,92240.75
2023-03-27T09:58:46.892Z,92231.00
2023-03-27T10:01:53.427Z,92230.50
2023-03-27T10:05:14.923Z,92235.16
2023-03-27T10:08:27.294Z,92239.13
2023-03-27T10:11:43.274Z,92237.25
2023-03-27T10:14:58.848Z,92238.03
2023-03-27T10:18:28.179Z,92245.28
2023-03-27T10:21:48.234Z,92236.78
2023-03-27T10:25:05.445Z,92230.34
2023-03-27T10:28:35.256Z,92235.66
2023-03-27T10:31:54.333Z,92243.63
2023-03-27T10:35:37.183Z,92241.75
2023-03-27T10:38:57.446Z,92235.44
2023-03-27T10:42:32.428Z,92242.81
2023-03-27T10:45:52.677Z,92238.47
2023-03-27T10:49:26.225Z,92242.63
2023-03-27T10:53:11.624Z,92238.31
2023-03-27T10:56:32.987Z,92236.63
2023-03-27T10:59:42.242Z,92246.06
2023-03-27T11:03:04.577Z,92247.59
2023-03-27T11:06:20.715Z,92257.56
2023-03-27T11:09:42.413Z,92251.88
2023-03-27T11:12:59.914Z,92255.25
2023-03-27T11:16:21.564Z,92266.41
2023-03-27T11:19:54.587Z,92263.25
2023-03-27T11:23:55.223Z,92265.28
2023-03-27T11:27:19.634Z,92272.53
2023-03-27T11:30:40.200Z,92275.25
2023-03-27T11:34:34.301Z,92282.53
2023-03-27T11:38:32.242Z,92289.16
2023-03-27T11:41:38.268Z,92289.97
2023-03-27T11:44:42.808Z,92292.59
2023-03-27T11:48:30.620Z,92298.53
2023-03-27T11:51:34.264Z,92304.47
2023-03-27T11:54:40.299Z,92305.84
2023-03-27T11:58:18.130Z,92306.56
2023-03-27T12:01:56.819Z,92304.66
2023-03-27T12:05:18.449Z,92306.63
2023-03-27T12:08:47.178Z,92311.25
2023-03-27T12:12:14.373Z,92306.06
2023-03-27T12:15:53.016Z,92318.47
2023-03-27T12:19:28.550Z,92315.88
2023-03-27T12:23:18.717Z,92305.47
2023-03-27T12:26:55.205Z,92309.38
2023-03-27T12:30:23.619Z,92311.97
2023-03-27T12:33:37.841Z,92313.28
2023-03-27T12:36:45.622Z,92313.97
2023-03-27T12:39:57.410Z,92308.75
2023-03-27T12:43:08.692Z,92307.44
2023-03-27T12:46:32.251Z,92305.47
2023-03-27T12:49:47.540Z,92306.78
2023-03-27T12:53:05.185Z,92310.69
2023-03-27T12:56:18.199Z,92306.13
2023-03-27T12:59:29.358Z,92312.63
2023-03-27T13:02:49.608Z,92314.56
2023-03-27T13:06:18.844Z,92314.56
2023-03-27T13:09:33.041Z,92304.81
2023-03-27T13:13:03.346Z,92309.34
2023-03-27T13:16:17.588Z,92310.00
2023-03-27T13:19:34.828Z,92314.53
2023-03-27T13:23:02.866Z,92302.81
2023-03-27T13:26:17.911Z,92305.31
2023-03-27T13:29:24.934Z,92313.16
2023-03-27T13:32:43.199Z,92303.38
2023-03-27T13:35:58.731Z,92296.88
2023-03-27T13:39:06.661Z,92294.28
2023-03-27T13:42:15.192Z,92285.19
2023-03-27T13:45:39.542Z,92285.19
2023-03-27T13:49:19.131Z,92291.00
2023-03-27T13:53:01.886Z,92292.91
2023-03-27T13:56:36.305Z,92287.72
2023-03-27T14:00:07.958Z,92292.28
2023-03-27T14:03:38.511Z,92286.41
2023-03-27T14:07:21.803Z,92288.34
2023-03-27T14:11:15.487Z,92290.25
2023-03-27T14:14:42.908Z,92290.28
2023-03-27T14:18:14.603Z,92293.53
2023-03-27T14:21:35.646Z,92292.84
2023-03-27T14:25:12.284Z,92300.63
2023-03-27T14:28:36.325Z,92288.28
2023-03-27T14:31:44.818Z,92296.13
2023-03-27T14:35:36.680Z,92286.41
2023-03-27T14:38:42.687Z,92296.81
2023-03-27T14:42:00.685Z,92295.53
2023-03-27T14:45:23.603Z,92287.09
2023-03-27T14:48:41.949Z,92289.66
2023-03-27T14:51:48.187Z,92288.38
2023-03-27T14:55:14.723Z,92284.50
2023-03-27T14:58:20.074Z,92281.94
2023-03-27T15:01:26.827Z,92285.19
2023-03-27T15:04:34.077Z,92279.31
2023-03-27T15:07:45.719Z,92276.72
2023-03-27T15:11:22.308Z,92281.25
2023-03-27T15:14:42.288Z,92269.59
2023-03-27T15:17:46.865Z,92268.31
2023-03-27T15:20:51.457Z,92273.53
2023-03-27T15:24:11.033Z,92278.75
2023-03-27T15:27:20.790Z,92266.41
2023-03-27T15:30:29.518Z,92264.44
2023-03-27T15:33:41.810Z,92264.44
2023-03-27T15:36:57.644Z,92252.06
2023-03-27T15:40:16.122Z,92266.38
2023-03-27T15:43:25.186Z,92264.41
2023-03-27T15:46:35.488Z,92261.78
2023-03-27T15:49:42.547Z,92262.44
2023-03-27T15:52:51.060Z,92253.97
2023-03-27T15:55:56.759Z,92255.25
2023-03-27T15:59:02.725Z,92260.44
2023-03-27T16:02:12.142Z,92259.78
2023-03-27T16:05:18.500Z,92257.78
2023-03-27T16:08:30.579Z,92256.47
2023-03-27T16:11:55.090Z,92250.59
2023-03-27T16:14:59.773Z,92260.31
2023-03-27T16:18:14.178Z,92252.50
2023-03-27T16:21:17.969Z,92253.78
2023-03-27T16:24:21.555Z,92247.91
2023-03-27T16:27:28.524Z,92247.25
2023-03-27T16:30:39.417Z,92244.63
2023-03-27T16:33:46.359Z,92240.66
2023-03-27T16:36:49.631Z,92245.84
2023-03-27T16:39:53.478Z,92234.75
2023-03-27T16:42:56.825Z,92245.75
2023-03-27T16:46:00.230Z,92236.63
2023-03-27T16:49:03.951Z,92232.03
2023-03-27T16:52:07.492Z,92240.44
2023-03-27T16:55:12.145Z,92239.78
2023-03-27T16:58:15.284Z,92233.97
2023-03-27T17:01:18.501Z,92231.34
2023-03-27T17:04:22.150Z,92228.78
2023-03-27T17:07:28.087Z,92230.75
2023-03-27T17:10:31.800Z,92227.47
2023-03-27T17:13:35.109Z,92222.31
2023-03-27T17:16:38.882Z,92225.53
2023-03-27T17:19:42.047Z,92223.56
2023-03-27T17:22:46.227Z,92228.75
2023-03-27T17:25:50.115Z,92222.31
2023-03-27T17:28:53.782Z,92217.16
2023-03-27T17:32:01.437Z,92233.38
2023-03-27T17:35:05.208Z,92233.44
2023-03-27T17:38:09.142Z,92236.06
2023-03-27T17:41:13.889Z,92234.72
2023-03-27T17:44:17.032Z,92241.16
2023-03-27T17:47:20.138Z,92239.81
2023-03-27T17:50:23.354Z,92240.50
2023-03-27T17:53:28.135Z,92239.84
2023-03-27T17:56:31.365Z,92239.88
2023-03-27T17:59:37.052Z,92241.75
2023-03-27T18:02:40.272Z,92243.56
2023-03-27T18:05:44.209Z,92242.81
2023-03-27T18:08:47.931Z,92248.63
2023-03-27T18:11:51.389Z,92240.75
2023-03-27T18:14:54.571Z,92242.03
2023-03-27T18:17:57.824Z,92238.72
2023-03-27T18:21:01.247Z,92237.38
2023-03-27T18:24:04.699Z,92241.94
2023-03-27T18:27:07.893Z,92227.66
2023-03-27T18:30:13.941Z,92233.50
2023-03-27T18:33:17.226Z,92229.66
2023-03-27T18:36:21.006Z,92221.31
2023-03-27T18:39:24.244Z,92225.19
2023-03-27T18:42:28.079Z,92220.00
2023-03-27T18:45:31.314Z,92221.97
2023-03-27T18:48:34.950Z,92220.75
2023-03-27T18:51:38.044Z,92225.94
2023-03-27T18:54:41.360Z,92225.97
2023-03-27T18:57:45.728Z,92223.34
2023-03-27T19:00:48.941Z,92218.16
2023-03-27T19:03:52.224Z,92214.25
2023-03-27T19:06:55.391Z,92218.72
2023-03-27T19:09:58.614Z,92219.34
2023-03-27T19:13:11.119Z,92211.50
2023-03-27T19:16:26.229Z,92209.50
2023-03-27T19:19:43.990Z,92203.69
2023-03-27T19:22:49.135Z,92200.50
2023-03-27T19:26:17.788Z,92197.25
2023-03-27T19:29:21.806Z,92192.03
2023-03-27T19:32:27.135Z,92187.44
2023-03-27T19:35:30.323Z,92192.56
2023-03-27T19:38:34.510Z,92185.47
2023-03-27T19:41:37.655Z,92183.56
2023-03-27T19:44:40.904Z,92185.50
2023-03-27T19:47:44.352Z,92184.13
2023-03-27T19:50:48.029Z,92181.50
2023-03-27T19:53:56.120Z,92184.75
2023-03-27T19:57:01.702Z,92173.66
2023-03-27T20:00:13.361Z,92171.03
2023-03-27T20:03:20.571Z,92176.84
2023-03-27T20:06:26.650Z,92171.63
2023-03-27T20:09:29.750Z,92182.56
2023-03-27T20:12:33.209Z,92172.16
2023-03-27T20:15:39.455Z,92179.84
2023-03-27T20:18:43.482Z,92192.66
2023-03-27T20:21:47.368Z,92186.81
2023-03-27T20:24:51.896Z,92184.22
2023-03-27T20:27:56.594Z,92186.16
2023-03-27T20:31:07.106Z,92177.75
2023-03-27T20:34:11.072Z,92178.38
2023-03-27T20:37:14.268Z,92189.19
2023-03-27T20:40:26.628Z,92189.00
2023-03-27T20:43:31.502Z,92176.50
2023-03-27T20:46:34.903Z,92175.59
2023-03-27T20:49:41.538Z,92179.16
2023-03-27T20:52:48.951Z,92178.81
2023-03-27T20:56:00.448Z,92168.81
2023-03-27T20:59:03.771Z,92168.16
2023-03-27T21:02:07.776Z,92166.38
2023-03-27T21:05:11.680Z,92181.53
2023-03-27T21:08:15.278Z,92176.09
2023-03-27T21:11:18.376Z,92181.44
2023-03-27T21:14:21.831Z,92181.53
2023-03-27T21:17:25.035Z,92185.38
2023-03-27T21:20:28.474Z,92183.31
2023-03-27T21:23:31.753Z,92185.06
2023-03-27T21:26:35.520Z,92175.97
2023-03-27T21:29:38.719Z,92182.44
2023-03-27T21:32:42.306Z,92175.56
2023-03-27T21:35:49.487Z,92182.25
2023-03-27T21:38:52.638Z,92189.38
2023-03-27T21:41:55.812Z,92185.47
2023-03-27T21:44:59.004Z,92187.31
2023-03-27T21:48:02.315Z,92199.44
2023-03-27T21:51:09.281Z,92197.84
2023-03-27T21:54:12.587Z,92196.78
2023-03-27T21:57:16.315Z,92194.41
2023-03-27T22:00:20.309Z,92184.28
2023-03-27T22:03:23.616Z,92193.47
2023-03-27T22:06:29.428Z,92197.09
2023-03-27T22:09:32.936Z,92200.50
2023-03-27T22:12:37.968Z,92183.88
2023-03-27T22:15:41.385Z,92193.72
2023-03-27T22:18:45.387Z,92191.53
2023-03-27T22:21:48.549Z,92181.00
2023-03-27T22:24:51.677Z,92190.53
2023-03-27T22:27:54.870Z,92181.28
2023-03-27T22:30:58.270Z,92183.44
2023-03-27T22:34:01.676Z,92180.34
2023-03-27T22:37:04.887Z,92191.31
2023-03-27T22:40:08.780Z,92194.59
2023-03-27T22:43:12.029Z,92189.41
2023-03-27T22:46:26.256Z,92197.19
2023-03-27T22:49:29.635Z,92197.34
2023-03-27T22:52:32.994Z,92207.91
2023-03-27T22:55:36.338Z,92208.84
2023-03-27T22:58:39.773Z,92212.34
2023-03-27T23:01:43.021Z,92217.75
2023-03-27T23:04:46.297Z,92210.22
2023-03-27T23:07:49.478Z,92209.09
2023-03-27T23:10:58.072Z,92213.91
2023-03-27T23:14:01.812Z,92215.69
2023-03-27T23:17:05.236Z,92218.78
2023-03-27T23:20:08.898Z,92222.91
2023-03-27T23:23:12.069Z,92218.59
2023-03-27T23:26:16.079Z,92224.09
2023-03-27T23:29:19.530Z,92233.69
2023-03-27T23:32:23.036Z,92224.09
2023-03-27T23:35:26.220Z,92230.00
2023-03-27T23:38:29.829Z,92235.81
2023-03-27T23:41:33.007Z,92238.25
2023-03-27T23:44:36.378Z,92244.59
2023-03-27T23:47:39.744Z,92237.25
2023-03-27T23:50:42.836Z,92244.31
2023-03-27T23:53:46.325Z,92240.47
2023-03-27T23:56:49.580Z,92243.66
2023-03-27T23:59:52.754Z,92240.72
